createdAt,value
2023-03-05T00:01:41.418Z,1.99
2023-03-05T00:04:14.306Z,1.97
2023-03-05T00:06:44.389Z,1.95
2023-03-05T00:09:12.979Z,1.94
2023-03-05T00:11:42.593Z,1.96
2023-03-05T00:14:11.356Z,1.97
2023-03-05T00:16:39.942Z,1.98
2023-03-05T00:19:12.973Z,1.98
2023-03-05T00:21:42.275Z,1.98
2023-03-05T00:24:14.836Z,1.98
2023-03-05T00:26:44.568Z,1.99
2023-03-05T00:29:18.567Z,1.99
2023-03-05T00:31:48.986Z,2.00
2023-03-05T00:34:18.358Z,2.00
2023-03-05T00:36:50.019Z,2.00
2023-03-05T00:39:19.723Z,2.01
2023-03-05T00:41:48.614Z,2.00
2023-03-05T00:44:17.302Z,2.00
2023-03-05T00:46:46.459Z,2.04
2023-03-05T00:49:15.194Z,2.03
2023-03-05T00:51:44.952Z,2.01
2023-03-05T00:54:13.789Z,2.00
2023-03-05T00:56:43.443Z,2.01
2023-03-05T00:59:12.387Z,2.04
2023-03-05T01:01:42.713Z,2.04
2023-03-05T01:04:12.311Z,2.04
2023-03-05T01:06:44.974Z,2.06
2023-03-05T01:09:16.241Z,2.07
2023-03-05T01:11:45.432Z,2.06
2023-03-05T01:14:15.645Z,2.06
2023-03-05T01:16:44.809Z,2.08
2023-03-05T01:19:14.651Z,2.11
2023-03-05T01:21:42.951Z,2.08
2023-03-05T01:24:15.708Z,2.06
2023-03-05T01:26:45.019Z,2.06
2023-03-05T01:29:13.896Z,2.05
2023-03-05T01:31:43.379Z,2.05
2023-03-05T01:34:12.410Z,2.02
2023-03-05T01:36:42.628Z,2.06
2023-03-05T01:39:11.300Z,2.07
2023-03-05T01:41:39.861Z,2.06
2023-03-05T01:44:24.146Z,2.04
2023-03-05T01:46:52.622Z,2.02
2023-03-05T01:49:22.634Z,2.00
2023-03-05T01:51:59.108Z,1.98
2023-03-05T01:54:33.704Z,1.96
2023-03-05T01:57:07.557Z,1.95
2023-03-05T01:59:40.635Z,1.94
2023-03-05T02:02:09.408Z,1.94
2023-03-05T02:04:46.219Z,1.98
2023-03-05T02:07:16.603Z,1.96
2023-03-05T02:09:45.190Z,1.93
2023-03-05T02:12:13.696Z,1.93
2023-03-05T02:14:46.230Z,1.94
2023-03-05T02:17:14.640Z,1.96
2023-03-05T02:19:57.409Z,1.98
2023-03-05T02:22:26.036Z,2.00
2023-03-05T02:24:54.727Z,2.03
2023-03-05T02:27:28.939Z,2.02
2023-03-05T02:30:02.122Z,2.02
2023-03-05T02:32:30.857Z,2.04
2023-03-05T02:34:59.400Z,2.04
2023-03-05T02:37:29.110Z,2.03
2023-03-05T02:39:57.746Z,1.99
2023-03-05T02:42:27.313Z,1.93
2023-03-05T02:44:57.112Z,1.84
2023-03-05T02:47:28.172Z,1.79
2023-03-05T02:49:56.839Z,1.79
2023-03-05T02:52:25.935Z,1.78
2023-03-05T02:54:54.419Z,1.79
2023-03-05T02:57:24.536Z,1.76
2023-03-05T02:59:54.209Z,1.74
2023-03-05T03:02:22.936Z,1.75
2023-03-05T03:04:51.618Z,1.73
2023-03-05T03:07:20.422Z,1.69
2023-03-05T03:09:51.056Z,1.71
2023-03-05T03:12:21.789Z,1.71
2023-03-05T03:14:50.173Z,1.65
2023-03-05T03:17:19.248Z,1.58
2023-03-05T03:19:48.447Z,1.53
2023-03-05T03:22:17.041Z,1.46
2023-03-05T03:24:48.224Z,1.39
2023-03-05T03:27:16.553Z,1.30
2023-03-05T03:29:45.859Z,1.24
2023-03-05T03:32:14.698Z,1.25
2023-03-05T03:34:48.582Z,1.27
2023-03-05T03:37:17.218Z,1.29
2023-03-05T03:39:45.536Z,1.31
2023-03-05T03:42:16.561Z,1.34
2023-03-05T03:44:44.933Z,1.38
2023-03-05T03:47:13.386Z,1.41
2023-03-05T03:49:41.962Z,1.42
2023-03-05T03:52:10.609Z,1.42
2023-03-05T03:54:41.318Z,1.41
2023-03-05T03:57:10.125Z,1.40
2023-03-05T03:59:39.732Z,1.40
2023-03-05T04:02:08.356Z,1.40
2023-03-05T04:04:38.272Z,1.39
2023-03-05T04:07:07.211Z,1.37
2023-03-05T04:09:39.373Z,1.35
2023-03-05T04:12:08.880Z,1.36
2023-03-05T04:14:37.361Z,1.37
2023-03-05T04:17:05.943Z,1.38
2023-03-05T04:19:34.533Z,1.40
2023-03-05T04:22:03.438Z,1.41
2023-03-05T04:24:32.746Z,1.42
2023-03-05T04:27:01.635Z,1.42
2023-03-05T04:29:30.598Z,1.43
2023-03-05T04:31:59.106Z,1.44
2023-03-05T04:34:28.516Z,1.41
2023-03-05T04:36:56.975Z,1.42
2023-03-05T04:39:25.544Z,1.42
2023-03-05T04:41:54.127Z,1.38
2023-03-05T04:44:29.861Z,1.34
2023-03-05T04:46:58.438Z,1.32
2023-03-05T04:49:26.940Z,1.31
2023-03-05T04:51:57.735Z,1.31
2023-03-05T04:54:26.303Z,1.29
2023-03-05T04:56:55.891Z,1.27
2023-03-05T04:59:25.090Z,1.25
2023-03-05T05:01:55.949Z,1.18
2023-03-05T05:04:24.385Z,1.11
2023-03-05T05:06:58.391Z,1.05
2023-03-05T05:09:27.183Z,0.99
2023-03-05T05:11:55.843Z,0.96
2023-03-05T05:14:25.422Z,0.99
2023-03-05T05:16:54.264Z,1.12
2023-03-05T05:19:23.135Z,1.34
2023-03-05T05:21:52.084Z,1.63
2023-03-05T05:24:20.423Z,1.90
2023-03-05T05:26:49.436Z,2.17
2023-03-05T05:29:18.001Z,2.42
2023-03-05T05:31:46.676Z,2.65
2023-03-05T05:34:16.303Z,2.88
2023-03-05T05:36:44.877Z,3.12
2023-03-05T05:39:13.262Z,3.28
